createdAt,value
2022-11-19T00:01:14.854Z,99651.06
2022-11-19T00:03:20.093Z,99651.88
2022-11-19T00:05:21.863Z,99632.88
2022-11-19T00:07:24.061Z,99642.94
2022-11-19T00:09:26.211Z,99638.31
2022-11-19T00:11:47.123Z,99632.06
2022-11-19T00:13:50.172Z,99636.94
2022-11-19T00:15:52.536Z,99663.53
2022-11-19T00:17:54.371Z,99663.53
2022-11-19T00:19:56.525Z,99659.75
2022-11-19T00:21:58.473Z,99662.16
2022-11-19T00:24:00.352Z,99642.91
2022-11-19T00:26:13.780Z,99656.75
2022-11-19T00:28:15.545Z,99649.44
2022-11-19T00:30:40.806Z,99661.34
2022-11-19T00:32:40.211Z,99664.91
2022-11-19T00:34:42.278Z,99643.47
2022-11-19T00:36:44.118Z,99655.88
2022-11-19T00:38:46.412Z,99669.25
2022-11-19T00:40:48.390Z,99663.81
2022-11-19T00:43:08.855Z,99655.94
2022-11-19T00:45:11.023Z,99660.84
2022-11-19T00:47:12.823Z,99650.25
2022-11-19T00:49:14.569Z,99645.09
2022-11-19T00:51:18.172Z,99664.63
2022-11-19T00:53:19.958Z,99669.25
2022-11-19T00:55:21.747Z,99656.22
2022-11-19T00:57:23.883Z,99670.59
2022-11-19T00:59:25.944Z,99658.94
2022-11-19T01:01:27.848Z,99661.09
2022-11-19T01:03:30.190Z,99673.56
2022-11-19T01:05:32.172Z,99661.09
2022-11-19T01:07:34.053Z,99671.66
2022-11-19T01:09:36.224Z,99677.38
2022-11-19T01:11:39.553Z,99691.22
2022-11-19T01:13:41.799Z,99690.38
2022-11-19T01:15:47.131Z,99695.81
2022-11-19T01:17:49.019Z,99690.66
2022-11-19T01:19:50.787Z,99685.75
2022-11-19T01:21:52.991Z,99681.41
2022-11-19T01:23:55.123Z,99690.09
2022-11-19T01:25:57.028Z,99699.88
2022-11-19T01:27:59.235Z,99689.03
2022-11-19T01:30:00.996Z,99695.00
2022-11-19T01:32:02.780Z,99692.84
2022-11-19T01:34:05.110Z,99688.47
2022-11-19T01:36:11.400Z,99697.69
2022-11-19T01:38:13.166Z,99683.88
2022-11-19T01:40:15.890Z,99680.91
2022-11-19T01:42:49.741Z,99700.44
2022-11-19T01:45:04.073Z,99702.56
2022-11-19T01:47:05.858Z,99699.34
2022-11-19T01:49:14.811Z,99676.53
2022-11-19T01:51:30.199Z,99688.22
2022-11-19T01:53:35.358Z,99685.53
2022-11-19T01:55:38.510Z,99693.13
2022-11-19T01:57:41.121Z,99696.63
2022-11-19T01:59:46.694Z,99697.72
2022-11-19T02:01:48.872Z,99688.53
2022-11-19T02:03:52.440Z,99690.66
2022-11-19T02:05:54.604Z,99674.13
2022-11-19T02:07:58.338Z,99703.69
2022-11-19T02:10:02.964Z,99680.34
2022-11-19T02:12:19.067Z,99703.69
2022-11-19T02:14:47.300Z,99708.06
2022-11-19T02:17:23.387Z,99702.91
2022-11-19T02:19:45.146Z,99695.84
2022-11-19T02:22:29.754Z,99703.97
2022-11-19T02:25:01.347Z,99704.78
2022-11-19T02:27:32.680Z,99702.09
2022-11-19T02:30:02.404Z,99705.06
2022-11-19T02:32:15.091Z,99693.13
2022-11-19T02:34:22.530Z,99691.47
2022-11-19T02:36:32.439Z,99705.88
2022-11-19T02:38:41.768Z,99692.03
2022-11-19T02:41:29.453Z,99699.34
2022-11-19T02:43:41.758Z,99684.72
2022-11-19T02:45:49.274Z,99682.81
2022-11-19T02:47:55.115Z,99675.47
2022-11-19T02:50:03.183Z,99696.91
2022-11-19T02:52:05.559Z,99690.63
2022-11-19T02:54:08.465Z,99700.44
2022-11-19T02:56:17.902Z,99690.13
2022-11-19T02:58:40.655Z,99695.03
2022-11-19T03:01:08.492Z,99692.31
2022-11-19T03:03:39.557Z,99690.94
2022-11-19T03:05:47.251Z,99701.81
2022-11-19T03:07:49.205Z,99698.25
2022-11-19T03:10:00.530Z,99712.38
2022-11-19T03:12:20.980Z,99695.28
2022-11-19T03:14:48.582Z,99716.44
2022-11-19T03:17:08.256Z,99722.69
2022-11-19T03:19:27.758Z,99728.13
2022-11-19T03:21:38.015Z,99723.25
2022-11-19T03:24:02.752Z,99712.41
2022-11-19T03:26:13.399Z,99709.13
2022-11-19T03:28:21.602Z,99726.75
2022-11-19T03:30:23.684Z,99717.28
2022-11-19T03:32:30.994Z,99715.09
2022-11-19T03:34:36.415Z,99739.00
2022-11-19T03:36:41.055Z,99733.00
2022-11-19T03:38:47.082Z,99736.28
2022-11-19T03:40:50.659Z,99736.28
2022-11-19T03:42:54.758Z,99725.97
2022-11-19T03:45:10.313Z,99719.16
2022-11-19T03:47:17.194Z,99739.78
2022-11-19T03:49:22.629Z,99729.22
2022-11-19T03:51:48.661Z,99748.19
2022-11-19T03:53:50.825Z,99744.94
2022-11-19T03:56:19.797Z,99760.97
2022-11-19T03:58:25.073Z,99744.13
2022-11-19T04:00:26.817Z,99739.81
2022-11-19T04:02:28.666Z,99748.75
2022-11-19T04:04:37.412Z,99738.97
2022-11-19T04:06:39.175Z,99754.47
2022-11-19T04:08:40.912Z,99761.78
2022-11-19T04:10:43.054Z,99758.25
2022-11-19T04:12:44.829Z,99763.97
2022-11-19T04:14:47.437Z,99765.03
2022-11-19T04:16:49.843Z,99763.94
2022-11-19T04:18:51.582Z,99767.75
2022-11-19T04:20:53.413Z,99762.31
2022-11-19T04:22:55.740Z,99754.19
2022-11-19T04:24:57.571Z,99765.03
2022-11-19T04:26:59.349Z,99769.66
2022-11-19T04:29:01.582Z,99766.06
2022-11-19T04:31:03.434Z,99773.19
2022-11-19T04:33:05.187Z,99775.09
2022-11-19T04:35:08.103Z,99771.56
2022-11-19T04:37:09.913Z,99768.47
2022-11-19T04:39:12.547Z,99773.63
2022-11-19T04:41:14.854Z,99772.59
2022-11-19T04:43:16.633Z,99780.78
2022-11-19T04:45:18.413Z,99777.75
2022-11-19T04:47:20.574Z,99783.97
2022-11-19T04:49:22.681Z,99775.31
2022-11-19T04:51:24.507Z,99773.94
2022-11-19T04:53:26.858Z,99772.34
2022-11-19T04:55:28.862Z,99785.38
2022-11-19T04:57:30.692Z,99782.09
2022-11-19T04:59:32.836Z,99781.03
2022-11-19T05:01:34.716Z,99774.22
2022-11-19T05:03:36.486Z,99789.97
2022-11-19T05:05:38.593Z,99784.53
2022-11-19T05:07:40.466Z,99795.44
2022-11-19T05:09:42.251Z,99795.94
2022-11-19T05:11:44.346Z,99786.47
2022-11-19T05:13:46.182Z,99781.28
2022-11-19T05:15:48.012Z,99772.31
2022-11-19T05:17:50.464Z,99781.81
2022-11-19T05:19:52.233Z,99779.38
2022-11-19T05:21:54.009Z,99780.78
2022-11-19T05:23:56.138Z,99786.22
2022-11-19T05:25:58.110Z,99776.44
2022-11-19T05:27:59.875Z,99761.22
2022-11-19T05:30:02.186Z,99777.78
2022-11-19T05:32:04.180Z,99786.72
2022-11-19T05:34:06.027Z,99775.59
2022-11-19T05:36:08.358Z,99794.59
2022-11-19T05:38:10.148Z,99793.25
2022-11-19T05:40:12.522Z,99775.84
2022-11-19T05:42:14.658Z,99796.78
2022-11-19T05:44:17.028Z,99792.66
2022-11-19T05:46:19.131Z,99804.69
2022-11-19T05:48:20.911Z,99811.19
2022-11-19T05:50:22.842Z,99808.47
2022-11-19T05:52:25.383Z,99807.38
2022-11-19T05:54:27.447Z,99810.84
2022-11-19T05:56:29.341Z,99814.94
2022-11-19T05:58:31.445Z,99812.81
2022-11-19T06:00:33.412Z,99813.06
2022-11-19T06:02:35.226Z,99812.78
2022-11-19T06:04:37.471Z,99820.13
2022-11-19T06:06:39.649Z,99830.16
2022-11-19T06:08:41.627Z,99833.44
2022-11-19T06:10:43.843Z,99837.25
2022-11-19T06:12:46.306Z,99832.34
2022-11-19T06:14:48.178Z,99837.78
2022-11-19T06:16:51.844Z,99827.47
2022-11-19T06:18:53.843Z,99832.88
2022-11-19T06:20:55.594Z,99828.56
2022-11-19T06:22:58.151Z,99844.56
2022-11-19T06:24:59.933Z,99836.38
2022-11-19T06:27:01.719Z,99849.97
2022-11-19T06:29:03.991Z,99857.63
2022-11-19T06:31:06.225Z,99863.31
2022-11-19T06:33:08.026Z,99857.34
2022-11-19T06:35:10.566Z,99853.25
2022-11-19T06:37:12.391Z,99869.59
2022-11-19T06:39:14.225Z,99872.53
2022-11-19T06:41:17.050Z,99883.41
2022-11-19T06:43:19.035Z,99864.41
2022-11-19T06:45:20.811Z,99886.66
2022-11-19T06:47:23.052Z,99886.09
2022-11-19T06:49:25.141Z,99877.16
2022-11-19T06:51:27.158Z,99895.34
2022-11-19T06:53:29.753Z,99896.72
2022-11-19T06:55:31.556Z,99899.16
2022-11-19T06:57:33.348Z,99902.16
2022-11-19T06:59:35.461Z,99897.53
2022-11-19T07:01:37.271Z,99898.09
2022-11-19T07:03:39.068Z,99904.63
2022-11-19T07:05:41.614Z,99902.41
2022-11-19T07:07:43.485Z,99901.88
2022-11-19T07:09:45.297Z,99890.47
2022-11-19T07:11:47.409Z,99913.28
2022-11-19T07:13:59.759Z,99905.13
2022-11-19T07:16:03.187Z,99897.03
2022-11-19T07:18:05.367Z,99910.84
2022-11-19T07:20:08.146Z,99891.03
2022-11-19T07:22:10.215Z,99898.09
2022-11-19T07:24:16.445Z,99910.59
2022-11-19T07:26:18.426Z,99912.50
2022-11-19T07:28:20.220Z,99902.47
2022-11-19T07:30:22.333Z,99905.75
2022-11-19T07:32:24.163Z,99922.56
2022-11-19T07:34:25.913Z,99920.41
2022-11-19T07:36:28.118Z,99912.50
2022-11-19T07:38:35.683Z,99894.59
2022-11-19T07:40:38.659Z,99910.09
2022-11-19T07:42:49.559Z,99927.47
2022-11-19T07:44:54.829Z,99916.06
2022-11-19T07:46:57.162Z,99925.88
2022-11-19T07:48:59.595Z,99926.41
2022-11-19T07:51:01.368Z,99931.84
2022-11-19T07:53:03.203Z,99913.06
2022-11-19T07:55:06.130Z,99905.19
2022-11-19T07:57:08.099Z,99928.03
2022-11-19T07:59:10.235Z,99891.59
2022-11-19T08:01:17.614Z,99906.28
2022-11-19T08:03:19.767Z,99928.59
2022-11-19T08:05:21.547Z,99932.38
2022-11-19T08:07:23.786Z,99909.56
2022-11-19T08:09:25.562Z,99925.28
2022-11-19T08:11:27.500Z,99913.31
2022-11-19T08:13:29.624Z,99924.16
2022-11-19T08:15:33.284Z,99921.44
2022-11-19T08:17:53.896Z,99921.16
2022-11-19T08:19:56.048Z,99924.16
2022-11-19T08:21:57.906Z,99902.94
2022-11-19T08:23:59.716Z,99933.91
2022-11-19T08:26:02.089Z,99929.28
2022-11-19T08:28:05.142Z,99925.50
2022-11-19T08:30:07.607Z,99929.53
2022-11-19T08:32:09.788Z,99930.72
2022-11-19T08:34:12.068Z,99921.66
2022-11-19T08:36:14.231Z,99932.25
2022-11-19T08:38:16.045Z,99937.13
2022-11-19T08:40:19.069Z,99945.28
2022-11-19T08:42:39.331Z,99943.56
2022-11-19T08:44:41.144Z,99932.56
2022-11-19T08:46:43.646Z,99940.69
2022-11-19T08:48:45.934Z,99948.84
2022-11-19T08:50:47.757Z,99949.91
2022-11-19T08:52:58.279Z,99952.97
2022-11-19T08:55:00.025Z,99949.13
2022-11-19T08:57:02.091Z,99956.31
2022-11-19T08:59:04.236Z,99964.28
2022-11-19T09:01:14.036Z,99950.38
2022-11-19T09:03:16.186Z,99955.28
2022-11-19T09:05:18.338Z,99946.00
2022-11-19T09:07:20.218Z,99944.19
2022-11-19T09:09:22.028Z,99948.94
2022-11-19T09:11:24.354Z,99956.38
2022-11-19T09:13:26.273Z,99948.28
2022-11-19T09:15:28.323Z,99948.97
2022-11-19T09:17:31.335Z,99939.34
2022-11-19T09:19:33.114Z,99956.88
2022-11-19T09:21:34.869Z,99961.78
2022-11-19T09:23:37.486Z,99961.59
2022-11-19T09:25:39.264Z,99970.84
2022-11-19T09:27:41.113Z,99977.84
2022-11-19T09:29:43.270Z,99946.31
2022-11-19T09:31:45.024Z,99955.03
2022-11-19T09:33:49.793Z,99958.88
2022-11-19T09:35:51.934Z,99954.81
2022-11-19T09:37:53.673Z,99951.03
2022-11-19T09:39:55.450Z,99959.88
2022-11-19T09:42:20.030Z,99964.97
2022-11-19T09:44:32.081Z,99957.63
2022-11-19T09:46:33.825Z,99962.16
2022-11-19T09:48:38.264Z,99960.16
2022-11-19T09:51:00.273Z,99957.09
2022-11-19T09:53:09.400Z,99959.38
2022-11-19T09:55:29.512Z,99962.53
2022-11-19T09:57:46.930Z,99958.09
2022-11-19T09:59:51.957Z,99965.88
2022-11-19T10:01:54.995Z,99949.41
2022-11-19T10:03:56.780Z,99966.28
2022-11-19T10:06:07.774Z,99964.16
2022-11-19T10:08:49.289Z,99967.53
2022-11-19T10:11:17.339Z,99955.78
2022-11-19T10:13:28.484Z,99960.03
2022-11-19T10:15:38.149Z,99962.53
2022-11-19T10:18:05.901Z,99964.78
2022-11-19T10:20:33.015Z,99964.25
2022-11-19T10:22:43.017Z,99942.25
2022-11-19T10:24:55.380Z,99929.38
2022-11-19T10:27:04.351Z,99957.47
2022-11-19T10:29:20.058Z,99953.97
2022-11-19T10:31:22.309Z,99959.53
2022-11-19T10:33:29.704Z,99965.09
2022-11-19T10:35:47.918Z,99957.97
2022-11-19T10:37:59.700Z,99959.78
2022-11-19T10:40:22.127Z,99959.25
2022-11-19T10:42:38.608Z,99966.84
2022-11-19T10:44:46.599Z,99967.41
2022-11-19T10:46:49.533Z,99971.78
2022-11-19T10:48:57.957Z,99939.03
2022-11-19T10:51:00.390Z,99958.28
2022-11-19T10:53:27.255Z,99968.84
2022-11-19T10:55:35.877Z,99954.94
2022-11-19T10:57:37.755Z,99973.44
2022-11-19T10:59:41.070Z,99974.22
2022-11-19T11:01:45.695Z,99958.63
2022-11-19T11:04:00.924Z,99971.44
2022-11-19T11:06:06.564Z,99935.81
2022-11-19T11:08:11.870Z,99935.78
2022-11-19T11:10:27.600Z,99972.75
2022-11-19T11:12:47.937Z,99968.53
2022-11-19T11:14:53.119Z,99971.38
2022-11-19T11:16:55.079Z,99973.00
2022-11-19T11:18:58.317Z,99985.53
2022-11-19T11:21:00.814Z,99964.44
2022-11-19T11:23:12.326Z,99974.25
2022-11-19T11:25:27.019Z,99975.34
2022-11-19T11:27:33.618Z,99970.50
2022-11-19T11:29:35.426Z,99986.56
2022-11-19T11:31:38.706Z,99991.38
2022-11-19T11:33:55.879Z,99989.44
2022-11-19T11:36:02.099Z,100000.41
2022-11-19T11:38:05.213Z,99999.22
2022-11-19T11:40:18.462Z,99971.66
2022-11-19T11:42:20.999Z,99995.13
2022-11-19T11:44:25.811Z,99983.00
2022-11-19T11:46:55.834Z,99995.25
2022-11-19T11:49:04.712Z,99977.38
2022-11-19T11:51:32.394Z,99961.63
2022-11-19T11:53:34.694Z,99989.16
2022-11-19T11:55:38.574Z,99981.84
2022-11-19T11:57:57.401Z,99998.97
2022-11-19T12:00:01.067Z,99990.53
2022-11-19T12:02:05.748Z,99987.00
2022-11-19T12:04:12.926Z,99992.72
2022-11-19T12:06:20.180Z,99994.88
2022-11-19T12:08:37.319Z,100010.13
2022-11-19T12:10:50.185Z,99989.44
2022-11-19T12:13:02.112Z,99999.25
2022-11-19T12:15:21.400Z,99992.69
2022-11-19T12:17:26.266Z,100001.34
2022-11-19T12:19:44.646Z,99994.84
2022-11-19T12:22:01.962Z,99998.59
2022-11-19T12:24:27.368Z,100000.50
2022-11-19T12:26:50.631Z,99992.91
2022-11-19T12:29:16.009Z,99992.91
2022-11-19T12:31:40.111Z,100003.06
2022-11-19T12:33:50.843Z,100001.34
2022-11-19T12:36:14.250Z,100008.41
2022-11-19T12:38:49.617Z,100018.25
2022-11-19T12:41:12.150Z,100011.44
2022-11-19T12:43:20.348Z,99995.69
2022-11-19T12:45:36.344Z,100013.09
2022-11-19T12:47:59.674Z,100031.31
2022-11-19T12:50:18.403Z,100026.44
2022-11-19T12:52:46.323Z,100031.03
2022-11-19T12:55:21.867Z,100028.88
2022-11-19T12:57:56.593Z,100021.25
2022-11-19T13:00:22.011Z,100019.06
2022-11-19T13:02:33.405Z,100023.69
2022-11-19T13:04:42.003Z,100022.06
2022-11-19T13:06:53.644Z,100010.38
2022-11-19T13:09:00.658Z,99999.75
2022-11-19T13:11:20.227Z,100012.00
2022-11-19T13:13:28.119Z,100006.00
2022-11-19T13:15:55.568Z,100020.97
2022-11-19T13:18:01.730Z,100017.47
2022-11-19T13:20:24.817Z,100016.06
2022-11-19T13:22:32.758Z,100019.84
2022-11-19T13:24:50.125Z,100006.56
2022-11-19T13:26:52.410Z,100018.75
2022-11-19T13:29:06.858Z,100029.66
2022-11-19T13:31:28.832Z,100016.38
2022-11-19T13:33:52.498Z,100035.66
2022-11-19T13:36:06.070Z,100030.78
2022-11-19T13:38:15.690Z,100042.22
2022-11-19T13:40:29.672Z,100045.47
2022-11-19T13:43:04.178Z,100035.13
2022-11-19T13:45:16.317Z,100039.22
2022-11-19T13:47:26.950Z,100027.50
2022-11-19T13:49:38.736Z,100033.44
2022-11-19T13:51:45.630Z,100056.34
2022-11-19T13:53:48.281Z,100050.84
2022-11-19T13:55:56.540Z,100054.66
2022-11-19T13:58:08.303Z,100062.25
2022-11-19T14:00:25.658Z,100064.06
2022-11-19T14:02:55.195Z,100063.25
2022-11-19T14:05:10.983Z,100060.47
2022-11-19T14:07:31.014Z,100049.06
2022-11-19T14:09:55.421Z,100068.66
2022-11-19T14:12:31.972Z,100080.53
2022-11-19T14:15:16.444Z,100068.00
2022-11-19T14:17:57.127Z,100087.31
2022-11-19T14:20:17.862Z,100082.69
2022-11-19T14:23:00.265Z,100060.06
2022-11-19T14:25:21.029Z,100083.69
2022-11-19T14:27:23.839Z,100074.72
2022-11-19T14:29:25.588Z,100085.28
2022-11-19T14:31:27.732Z,100063.22
2022-11-19T14:33:47.804Z,100079.81
2022-11-19T14:35:51.364Z,100076.75
2022-11-19T14:37:56.785Z,100065.00
2022-11-19T14:40:07.630Z,100073.72
2022-11-19T14:42:18.723Z,100073.66
2022-11-19T14:44:26.650Z,100068.22
2022-11-19T14:46:28.802Z,100053.97
2022-11-19T14:48:34.027Z,100067.84
2022-11-19T14:50:36.336Z,100071.41
2022-11-19T14:52:51.162Z,100086.91
2022-11-19T14:55:03.816Z,100060.50
2022-11-19T14:57:25.575Z,100050.13
2022-11-19T14:59:31.311Z,100078.69
2022-11-19T15:01:33.899Z,100081.16
2022-11-19T15:03:37.798Z,100079.81
2022-11-19T15:05:42.327Z,100075.19
2022-11-19T15:07:56.248Z,100071.91
2022-11-19T15:10:05.004Z,100076.22
2022-11-19T15:12:06.804Z,100080.31
2022-11-19T15:14:39.661Z,100069.09
2022-11-19T15:16:48.562Z,100071.22
2022-11-19T15:19:02.267Z,100062.59
2022-11-19T15:21:32.455Z,100064.91
2022-11-19T15:24:05.063Z,100070.63
2022-11-19T15:26:22.025Z,100074.22
2022-11-19T15:28:46.028Z,100072.81
2022-11-19T15:31:14.797Z,100074.53
2022-11-19T15:33:35.449Z,100073.94
2022-11-19T15:36:11.361Z,100075.03
2022-11-19T15:38:18.700Z,100077.97
2022-11-19T15:40:30.714Z,100077.69
2022-11-19T15:42:46.303Z,100067.22
2022-11-19T15:44:59.111Z,100070.78
2022-11-19T15:47:05.423Z,100054.13
2022-11-19T15:49:14.280Z,100086.59
2022-11-19T15:51:19.314Z,100071.97
2022-11-19T15:53:23.230Z,100069.94
2022-11-19T15:55:28.760Z,100080.28
2022-11-19T15:57:31.158Z,100087.53
2022-11-19T15:59:36.233Z,100085.06
2022-11-19T16:01:38.252Z,100071.72
2022-11-19T16:03:41.224Z,100093.75
2022-11-19T16:05:50.243Z,100098.59
2022-11-19T16:07:53.351Z,100098.44
2022-11-19T16:09:56.130Z,100086.72
2022-11-19T16:12:16.727Z,100069.28
2022-11-19T16:14:45.140Z,100094.84
2022-11-19T16:17:10.647Z,100089.59
2022-11-19T16:19:17.140Z,100103.78
2022-11-19T16:21:27.346Z,100098.69
2022-11-19T16:23:30.418Z,100103.22
2022-11-19T16:25:37.138Z,100100.91
2022-11-19T16:27:45.112Z,100097.97
2022-11-19T16:29:47.345Z,100104.69
2022-11-19T16:31:50.462Z,100101.47
2022-11-19T16:33:55.397Z,100108.06
2022-11-19T16:36:18.577Z,100120.56
2022-11-19T16:38:28.078Z,100113.53
2022-11-19T16:40:52.747Z,100113.78
2022-11-19T16:42:59.286Z,100122.72
2022-11-19T16:45:28.681Z,100113.78
2022-11-19T16:47:36.430Z,100104.97
2022-11-19T16:49:55.777Z,100118.91
2022-11-19T16:51:58.393Z,100119.94
2022-11-19T16:54:01.829Z,100124.28
2022-11-19T16:56:10.792Z,100120.47
2022-11-19T16:58:18.462Z,100117.28
2022-11-19T17:00:23.744Z,100104.78
2022-11-19T17:02:35.797Z,100095.81
2022-11-19T17:04:37.762Z,100103.75
2022-11-19T17:06:42.840Z,100104.91
2022-11-19T17:08:55.839Z,100108.75
2022-11-19T17:11:40.790Z,100101.91
2022-11-19T17:13:42.934Z,100101.19
2022-11-19T17:15:48.691Z,100104.47
2022-11-19T17:17:51.746Z,100110.69
2022-11-19T17:19:54.081Z,100103.91
2022-11-19T17:22:01.645Z,100081.38
2022-11-19T17:24:03.645Z,100091.84
2022-11-19T17:26:08.050Z,100107.09
2022-11-19T17:28:20.104Z,100106.47
2022-11-19T17:30:25.918Z,100102.84
2022-11-19T17:32:43.937Z,100124.94
2022-11-19T17:34:49.325Z,100123.81
2022-11-19T17:36:51.096Z,100128.22
2022-11-19T17:38:54.062Z,100139.22
2022-11-19T17:40:58.840Z,100118.72
2022-11-19T17:43:19.306Z,100117.22
2022-11-19T17:45:21.411Z,100115.31
2022-11-19T17:47:24.235Z,100115.84
2022-11-19T17:49:26.270Z,100125.59
2022-11-19T17:51:28.410Z,100117.94
2022-11-19T17:53:30.356Z,100114.66
2022-11-19T17:55:32.185Z,100127.66
2022-11-19T17:57:41.153Z,100126.06
2022-11-19T17:59:44.339Z,100123.31
2022-11-19T18:01:46.174Z,100123.41
2022-11-19T18:03:48.676Z,100119.63
2022-11-19T18:05:50.995Z,100120.16
2022-11-19T18:07:53.487Z,100116.34
2022-11-19T18:09:55.589Z,100136.50
2022-11-19T18:11:57.646Z,100128.22
2022-11-19T18:14:09.890Z,100133.22
2022-11-19T18:16:15.034Z,100131.97
2022-11-19T18:18:16.998Z,100141.28
2022-11-19T18:20:18.835Z,100117.84
2022-11-19T18:22:21.230Z,100150.63
2022-11-19T18:24:23.500Z,100145.28
2022-11-19T18:26:25.331Z,100091.38
2022-11-19T18:28:27.441Z,100136.09
2022-11-19T18:30:29.262Z,100147.84
2022-11-19T18:32:31.125Z,100133.06
2022-11-19T18:34:33.351Z,100135.00
2022-11-19T18:36:35.322Z,100142.16
2022-11-19T18:38:37.106Z,100154.69
2022-11-19T18:40:39.304Z,100141.38
2022-11-19T18:43:04.267Z,100139.38
2022-11-19T18:45:06.731Z,100149.13
2022-11-19T18:47:10.653Z,100161.50
2022-11-19T18:49:12.386Z,100167.22
2022-11-19T18:51:14.154Z,100172.16
2022-11-19T18:53:16.572Z,100148.47
2022-11-19T18:55:18.545Z,100156.59
2022-11-19T18:57:20.358Z,100145.69
2022-11-19T18:59:23.127Z,100151.47
2022-11-19T19:01:25.380Z,100152.22
2022-11-19T19:03:27.214Z,100154.19
2022-11-19T19:05:29.384Z,100152.94
2022-11-19T19:07:31.938Z,100160.81
2022-11-19T19:09:33.731Z,100152.47
2022-11-19T19:11:54.672Z,100147.47
2022-11-19T19:13:56.559Z,100151.63
2022-11-19T19:16:01.003Z,100161.56
2022-11-19T19:18:07.611Z,100151.00
2022-11-19T19:20:10.620Z,100155.31
2022-11-19T19:22:12.417Z,100135.63
2022-11-19T19:24:14.641Z,100162.97
2022-11-19T19:26:18.175Z,100173.25
2022-11-19T19:28:20.026Z,100156.38
2022-11-19T19:30:22.232Z,100174.22
2022-11-19T19:32:24.366Z,100145.88
2022-11-19T19:34:26.462Z,100163.78
2022-11-19T19:36:28.731Z,100154.16
2022-11-19T19:38:30.818Z,100177.38
2022-11-19T19:40:32.603Z,100162.13
2022-11-19T19:42:39.854Z,100156.63
2022-11-19T19:44:43.142Z,100170.19
2022-11-19T19:46:47.982Z,100182.72
2022-11-19T19:48:52.521Z,100182.25
2022-11-19T19:50:54.494Z,100177.31
2022-11-19T19:52:59.606Z,100166.06
2022-11-19T19:55:02.137Z,100181.41
2022-11-19T19:57:04.125Z,100178.25
2022-11-19T19:59:06.041Z,100167.31
2022-11-19T20:01:17.720Z,100182.03
2022-11-19T20:03:20.263Z,100194.28
2022-11-19T20:05:22.054Z,100157.63
2022-11-19T20:07:24.275Z,100159.47
2022-11-19T20:09:26.506Z,100185.09
2022-11-19T20:11:29.284Z,100175.91
2022-11-19T20:13:32.263Z,100181.78
2022-11-19T20:15:34.687Z,100166.28
2022-11-19T20:17:36.576Z,100187.78
2022-11-19T20:19:38.758Z,100183.94
2022-11-19T20:21:41.198Z,100164.84
2022-11-19T20:23:43.454Z,100168.06
2022-11-19T20:25:45.744Z,100170.88
2022-11-19T20:27:47.587Z,100144.13
2022-11-19T20:29:49.616Z,100160.31
2022-11-19T20:31:51.831Z,100154.78
2022-11-19T20:33:57.391Z,100169.75
2022-11-19T20:35:59.331Z,100164.63
2022-11-19T20:38:03.660Z,100149.53
2022-11-19T20:40:06.351Z,100173.28
2022-11-19T20:42:26.950Z,100158.22
2022-11-19T20:44:29.384Z,100179.97
2022-11-19T20:46:31.516Z,100178.66
2022-11-19T20:48:33.382Z,100169.47
2022-11-19T20:50:35.630Z,100175.38
2022-11-19T20:52:37.491Z,100165.88
2022-11-19T20:54:39.374Z,100152.25
2022-11-19T20:56:42.337Z,100167.59
2022-11-19T20:58:44.212Z,100164.31
2022-11-19T21:00:45.994Z,100159.44
2022-11-19T21:02:48.118Z,100148.47
2022-11-19T21:04:50.141Z,100167.00
2022-11-19T21:06:53.861Z,100157.41
2022-11-19T21:08:56.522Z,100164.28
2022-11-19T21:11:00.673Z,100167.50
2022-11-19T21:13:03.910Z,100152.78
2022-11-19T21:15:06.774Z,100136.91
2022-11-19T21:17:08.632Z,100152.13
2022-11-19T21:19:11.250Z,100166.25
2022-11-19T21:21:15.257Z,100149.63
2022-11-19T21:23:17.706Z,100154.28
2022-11-19T21:25:19.501Z,100134.63
2022-11-19T21:27:21.682Z,100152.03
2022-11-19T21:29:23.744Z,100162.38
2022-11-19T21:31:41.519Z,100149.06
2022-11-19T21:33:43.790Z,100155.41
2022-11-19T21:35:45.621Z,100174.91
2022-11-19T21:37:47.471Z,100164.09
2022-11-19T21:39:49.832Z,100170.75
2022-11-19T21:41:51.668Z,100161.25
2022-11-19T21:43:53.461Z,100142.22
2022-11-19T21:45:55.721Z,100186.56
2022-11-19T21:47:57.516Z,100181.25
2022-11-19T21:50:00.814Z,100184.28
2022-11-19T21:52:03.206Z,100177.13
2022-11-19T21:54:05.119Z,100176.81
2022-11-19T21:56:07.663Z,100164.22
2022-11-19T21:58:12.376Z,100167.72
2022-11-19T22:00:14.603Z,100158.47
2022-11-19T22:02:16.390Z,100150.81
2022-11-19T22:04:18.843Z,100162.16
2022-11-19T22:06:20.617Z,100153.72
2022-11-19T22:08:22.451Z,100164.88
2022-11-19T22:10:24.599Z,100167.91
2022-11-19T22:12:26.566Z,100167.25
2022-11-19T22:14:28.445Z,100162.09
2022-11-19T22:16:32.630Z,100171.75
2022-11-19T22:18:34.424Z,100170.66
2022-11-19T22:20:36.725Z,100169.03
2022-11-19T22:22:45.038Z,100158.88
2022-11-19T22:24:46.991Z,100154.91
2022-11-19T22:26:48.840Z,100163.41
2022-11-19T22:28:51.322Z,100151.06
2022-11-19T22:30:54.110Z,100158.75
2022-11-19T22:32:55.905Z,100158.22
2022-11-19T22:34:58.294Z,100154.41
2022-11-19T22:37:05.835Z,100151.69
2022-11-19T22:39:07.823Z,100155.84
2022-11-19T22:41:12.887Z,100161.28
2022-11-19T22:43:16.997Z,100167.13
2022-11-19T22:45:20.830Z,100163.09
2022-11-19T22:47:23.190Z,100158.88
2022-11-19T22:49:26.534Z,100155.84
2022-11-19T22:51:28.340Z,100165.25
2022-11-19T22:53:30.486Z,100160.84
2022-11-19T22:55:34.799Z,100166.94
2022-11-19T22:57:36.598Z,100162.28
2022-11-19T22:59:38.777Z,100149.69
2022-11-19T23:01:40.577Z,100158.06
2022-11-19T23:03:42.525Z,100164.63
2022-11-19T23:05:52.643Z,100163.53
2022-11-19T23:07:54.593Z,100148.94
2022-11-19T23:09:56.708Z,100145.59
2022-11-19T23:12:16.858Z,100144.13
2022-11-19T23:14:19.443Z,100156.41
2022-11-19T23:16:21.224Z,100151.06
2022-11-19T23:18:23.032Z,100110.72
2022-11-19T23:20:25.180Z,100133.81
2022-11-19T23:22:26.955Z,100134.06
2022-11-19T23:24:28.753Z,100132.63
2022-11-19T23:26:32.506Z,100147.25
2022-11-19T23:28:36.003Z,100135.69
2022-11-19T23:30:37.789Z,100135.56
2022-11-19T23:32:41.077Z,100115.09
2022-11-19T23:34:42.777Z,100139.34
2022-11-19T23:36:44.553Z,100119.41
2022-11-19T23:38:46.958Z,100124.56
2022-11-19T23:40:57.452Z,100120.16
2022-11-19T23:42:59.283Z,100128.41
2022-11-19T23:45:01.548Z,100129.59
2022-11-19T23:47:04.546Z,100129.41
2022-11-19T23:49:06.455Z,100135.84
2022-11-19T23:51:16.779Z,100117.50
2022-11-19T23:53:18.588Z,100135.13
2022-11-19T23:55:20.422Z,100118.63
2022-11-19T23:57:22.590Z,100122.91
2022-11-19T23:59:25.877Z,100144.66
